createdAt,value
2023-05-19T00:01:15.162Z,3.40
2023-05-19T00:03:59.124Z,3.63
2023-05-19T00:06:27.580Z,3.83
2023-05-19T00:08:58.201Z,3.58
2023-05-19T00:11:26.905Z,3.60
2023-05-19T00:13:54.578Z,3.70
2023-05-19T00:16:22.572Z,4.30
2023-05-19T00:18:49.694Z,3.40
2023-05-19T00:21:16.893Z,3.40
2023-05-19T00:23:43.800Z,3.83
2023-05-19T00:26:11.004Z,4.53
2023-05-19T00:28:39.402Z,4.70
2023-05-19T00:31:06.875Z,4.03
2023-05-19T00:33:33.911Z,4.22
2023-05-19T00:36:04.561Z,4.13
2023-05-19T00:38:31.920Z,4.20
2023-05-19T00:40:59.464Z,4.18
2023-05-19T00:43:26.436Z,3.97
2023-05-19T00:45:53.525Z,4.18
2023-05-19T00:48:20.934Z,4.65
2023-05-19T00:50:48.551Z,4.38
2023-05-19T00:53:15.517Z,3.90
2023-05-19T00:55:42.755Z,4.00
2023-05-19T00:58:11.853Z,3.72
2023-05-19T01:00:39.788Z,4.07
2023-05-19T01:03:11.358Z,3.83
2023-05-19T01:05:42.625Z,4.43
2023-05-19T01:08:09.687Z,3.95
2023-05-19T01:10:37.008Z,4.03
2023-05-19T01:13:05.306Z,3.80
2023-05-19T01:15:40.801Z,4.25
2023-05-19T01:18:07.743Z,4.38
2023-05-19T01:20:38.762Z,4.05
2023-05-19T01:23:21.489Z,3.88
2023-05-19T01:26:12.963Z,3.67
2023-05-19T01:28:45.960Z,4.43
2023-05-19T01:31:12.860Z,4.20
2023-05-19T01:33:40.265Z,4.40
2023-05-19T01:36:08.235Z,4.68
2023-05-19T01:38:36.208Z,3.83
2023-05-19T01:41:04.004Z,4.65
2023-05-19T01:43:30.962Z,4.03
2023-05-19T01:46:00.592Z,3.97
2023-05-19T01:48:29.128Z,4.10
2023-05-19T01:50:58.190Z,4.22
2023-05-19T01:53:25.343Z,4.00
2023-05-19T01:55:53.922Z,4.10
2023-05-19T01:58:22.751Z,3.70
2023-05-19T02:01:01.167Z,3.40
2023-05-19T02:03:52.429Z,3.97
2023-05-19T02:06:43.618Z,3.88
2023-05-19T02:09:30.356Z,3.63
2023-05-19T02:12:26.632Z,3.95
2023-05-19T02:15:00.399Z,4.10
2023-05-19T02:17:27.906Z,4.18
2023-05-19T02:19:54.733Z,4.18
2023-05-19T02:22:21.658Z,4.15
2023-05-19T02:24:51.561Z,4.05
2023-05-19T02:27:18.801Z,3.90
2023-05-19T02:29:46.057Z,4.13
2023-05-19T02:32:13.726Z,4.22
2023-05-19T02:34:42.299Z,4.43
2023-05-19T02:37:09.357Z,3.97
2023-05-19T02:39:36.305Z,4.43
2023-05-19T02:42:03.421Z,4.63
2023-05-19T02:44:30.316Z,4.28
2023-05-19T02:46:57.248Z,4.47
2023-05-19T02:49:24.135Z,4.60
2023-05-19T02:51:51.096Z,4.47
2023-05-19T02:54:17.938Z,4.50
2023-05-19T02:56:44.912Z,3.97
2023-05-19T02:59:11.766Z,4.47
2023-05-19T03:01:40.382Z,4.05
2023-05-19T03:04:07.756Z,4.10
2023-05-19T03:06:34.756Z,4.28
2023-05-19T03:09:01.677Z,4.25
2023-05-19T03:11:29.628Z,4.50
2023-05-19T03:13:56.493Z,4.07
2023-05-19T03:16:23.461Z,4.38
2023-05-19T03:18:51.071Z,4.72
2023-05-19T03:21:18.047Z,4.60
2023-05-19T03:23:44.896Z,4.57
2023-05-19T03:26:11.936Z,4.85
2023-05-19T03:28:38.870Z,4.78
2023-05-19T03:31:06.006Z,4.57
2023-05-19T03:33:37.637Z,4.90
2023-05-19T03:36:05.814Z,4.50
2023-05-19T03:38:36.560Z,4.10
2023-05-19T03:41:03.803Z,4.72
2023-05-19T03:43:31.653Z,4.72
2023-05-19T03:46:02.895Z,4.40
2023-05-19T03:48:41.797Z,5.43
2023-05-19T03:51:28.572Z,4.20
2023-05-19T03:53:58.542Z,4.68
2023-05-19T03:56:27.666Z,4.55
2023-05-19T03:58:55.360Z,4.65
2023-05-19T04:01:22.389Z,4.93
2023-05-19T04:03:49.339Z,4.65
2023-05-19T04:06:16.414Z,4.22
2023-05-19T04:08:44.298Z,4.28
2023-05-19T04:11:12.419Z,4.50
2023-05-19T04:13:39.317Z,4.43
2023-05-19T04:16:06.739Z,4.97
2023-05-19T04:18:33.679Z,4.70
2023-05-19T04:21:00.528Z,4.90
2023-05-19T04:23:27.454Z,4.72
2023-05-19T04:25:57.063Z,4.93
2023-05-19T04:28:24.304Z,4.30
2023-05-19T04:30:51.617Z,4.75
2023-05-19T04:33:20.160Z,4.30
2023-05-19T04:35:47.623Z,4.95
2023-05-19T04:38:18.819Z,4.60
2023-05-19T04:40:50.218Z,4.97
2023-05-19T04:43:19.389Z,4.53
2023-05-19T04:45:47.333Z,4.97
2023-05-19T04:48:15.207Z,5.35
2023-05-19T04:50:42.336Z,5.25
2023-05-19T04:53:10.000Z,5.40
2023-05-19T04:55:38.709Z,4.80
2023-05-19T04:58:06.691Z,5.40
2023-05-19T05:00:35.838Z,5.15
2023-05-19T05:03:06.438Z,5.32
2023-05-19T05:05:34.980Z,4.80
2023-05-19T05:08:01.840Z,5.85
2023-05-19T05:10:32.833Z,5.75
2023-05-19T05:13:00.879Z,5.82
2023-05-19T05:15:29.815Z,5.53
2023-05-19T05:17:59.420Z,6.18
2023-05-19T05:20:26.841Z,5.93
2023-05-19T05:22:54.124Z,5.60
2023-05-19T05:25:22.645Z,5.70
2023-05-19T05:27:50.248Z,5.85
2023-05-19T05:30:17.117Z,5.75
2023-05-19T05:32:44.650Z,5.10
2023-05-19T05:35:26.231Z,4.82
2023-05-19T05:37:53.482Z,4.95
2023-05-19T05:40:20.432Z,4.75
2023-05-19T05:42:47.943Z,4.90
2023-05-19T05:45:15.723Z,4.60
2023-05-19T05:47:43.139Z,4.97
2023-05-19T05:50:10.807Z,4.93
2023-05-19T05:52:37.963Z,4.75
2023-05-19T05:55:06.013Z,4.70
2023-05-19T05:57:36.960Z,4.60
2023-05-19T06:00:07.909Z,4.25
2023-05-19T06:02:47.442Z,4.40
2023-05-19T06:05:16.068Z,4.63
2023-05-19T06:07:43.785Z,4.90
2023-05-19T06:10:12.776Z,5.00
2023-05-19T06:12:43.324Z,5.45
2023-05-19T06:15:11.712Z,5.32
2023-05-19T06:18:01.864Z,6.03
2023-05-19T06:20:29.436Z,6.05
2023-05-19T06:22:57.080Z,6.00
2023-05-19T06:25:27.010Z,6.15
2023-05-19T06:27:54.562Z,6.43
2023-05-19T06:30:22.901Z,5.65
2023-05-19T06:33:12.481Z,6.20
2023-05-19T06:35:39.463Z,7.07
2023-05-19T06:38:06.606Z,6.70
2023-05-19T06:40:33.754Z,6.95
2023-05-19T06:43:00.892Z,7.13
2023-05-19T06:45:52.021Z,7.40
2023-05-19T06:48:19.277Z,7.68
2023-05-19T06:50:46.234Z,7.47
2023-05-19T06:53:13.468Z,7.10
2023-05-19T06:55:54.434Z,7.10
2023-05-19T06:58:26.751Z,7.40
2023-05-19T07:00:53.806Z,6.72
2023-05-19T07:03:21.366Z,6.95
2023-05-19T07:05:48.787Z,7.22
2023-05-19T07:08:15.866Z,7.32
2023-05-19T07:10:43.447Z,6.78
2023-05-19T07:13:13.337Z,7.05
2023-05-19T07:15:41.298Z,7.20
2023-05-19T07:18:08.183Z,7.22
2023-05-19T07:20:36.025Z,6.85
2023-05-19T07:23:03.544Z,6.82
2023-05-19T07:25:30.807Z,6.38
2023-05-19T07:27:57.838Z,6.70
2023-05-19T07:30:25.059Z,6.43
2023-05-19T07:32:51.999Z,7.10
2023-05-19T07:35:18.959Z,7.10
2023-05-19T07:37:45.893Z,7.00
2023-05-19T07:40:13.172Z,6.60
2023-05-19T07:42:40.566Z,6.60
2023-05-19T07:45:07.963Z,7.05
2023-05-19T07:47:34.842Z,7.00
2023-05-19T07:50:01.773Z,6.47
2023-05-19T07:52:28.854Z,6.72
2023-05-19T07:54:56.000Z,6.45
2023-05-19T07:57:22.995Z,6.55
2023-05-19T07:59:49.862Z,6.75
2023-05-19T08:02:16.775Z,6.70
2023-05-19T08:04:43.730Z,8.25
2023-05-19T08:07:10.858Z,6.45
2023-05-19T08:09:37.744Z,7.05
2023-05-19T08:12:05.020Z,7.22
2023-05-19T08:14:33.459Z,7.57
2023-05-19T08:17:00.666Z,6.40
2023-05-19T08:19:27.766Z,6.50
2023-05-19T08:21:55.790Z,5.75
2023-05-19T08:24:22.800Z,6.82
2023-05-19T08:26:49.662Z,6.28
2023-05-19T08:29:16.707Z,6.63
2023-05-19T08:31:43.698Z,7.03
2023-05-19T08:34:10.791Z,6.15
2023-05-19T08:36:37.938Z,6.53
2023-05-19T08:39:05.056Z,6.68
2023-05-19T08:41:32.284Z,7.18
2023-05-19T08:43:59.316Z,6.97
2023-05-19T08:46:26.523Z,8.50
2023-05-19T08:48:55.433Z,7.63
2023-05-19T08:51:39.432Z,8.27
2023-05-19T08:54:18.129Z,7.90
2023-05-19T08:56:47.857Z,8.38
2023-05-19T08:59:15.487Z,8.55
2023-05-19T09:01:44.303Z,7.68
2023-05-19T09:04:11.231Z,7.30
2023-05-19T09:06:40.988Z,8.45
2023-05-19T09:09:08.502Z,7.80
2023-05-19T09:11:37.562Z,7.70
2023-05-19T09:14:07.501Z,7.75
2023-05-19T09:16:34.512Z,7.78
2023-05-19T09:19:01.734Z,7.45
2023-05-19T09:21:31.209Z,7.43
2023-05-19T09:24:08.294Z,7.68
2023-05-19T09:26:41.974Z,6.63
2023-05-19T09:29:15.589Z,7.25
2023-05-19T09:31:52.417Z,7.10
2023-05-19T09:34:19.525Z,6.90
2023-05-19T09:36:49.656Z,6.43
2023-05-19T09:39:17.093Z,7.38
2023-05-19T09:41:44.413Z,7.13
2023-05-19T09:44:23.314Z,7.90
2023-05-19T09:46:51.054Z,6.72
2023-05-19T09:49:21.907Z,6.45
2023-05-19T09:51:55.620Z,6.75
2023-05-19T09:54:23.805Z,6.25
2023-05-19T09:57:17.021Z,6.80
2023-05-19T09:59:43.873Z,6.78
2023-05-19T10:02:16.817Z,5.70
2023-05-19T10:04:43.716Z,6.10
2023-05-19T10:07:10.579Z,5.93
2023-05-19T10:09:37.536Z,5.80
2023-05-19T10:12:04.831Z,5.80
2023-05-19T10:14:31.766Z,5.40
2023-05-19T10:16:59.316Z,5.45
2023-05-19T10:19:27.709Z,5.63
2023-05-19T10:21:55.150Z,5.47
2023-05-19T10:24:22.294Z,4.97
2023-05-19T10:26:56.875Z,5.28
2023-05-19T10:29:28.461Z,4.70
2023-05-19T10:31:56.145Z,5.50
2023-05-19T10:34:26.959Z,5.75
2023-05-19T10:37:15.793Z,5.53
2023-05-19T10:39:44.725Z,5.30
2023-05-19T10:42:19.597Z,5.03
2023-05-19T10:45:02.837Z,5.82
2023-05-19T10:47:29.931Z,5.90
2023-05-19T10:49:57.183Z,5.68
2023-05-19T10:52:29.652Z,6.00
2023-05-19T10:54:58.331Z,5.45
2023-05-19T10:57:30.590Z,5.57
2023-05-19T11:00:08.130Z,5.72
2023-05-19T11:02:42.342Z,5.82
2023-05-19T11:05:19.536Z,5.63
2023-05-19T11:08:05.759Z,5.30
2023-05-19T11:10:32.660Z,5.13
2023-05-19T11:12:59.688Z,5.00
2023-05-19T11:15:29.785Z,5.22
2023-05-19T11:17:56.908Z,5.25
2023-05-19T11:20:25.308Z,5.32
2023-05-19T11:23:14.975Z,5.13
2023-05-19T11:25:46.926Z,4.88
2023-05-19T11:28:25.620Z,5.68
2023-05-19T11:30:54.507Z,5.40
2023-05-19T11:33:21.652Z,5.35
2023-05-19T11:35:50.373Z,5.15
2023-05-19T11:38:18.733Z,5.38
2023-05-19T11:40:45.886Z,5.28
2023-05-19T11:43:12.832Z,4.78
2023-05-19T11:45:39.762Z,5.30
2023-05-19T11:48:07.058Z,4.68
2023-05-19T11:50:35.307Z,5.53
2023-05-19T11:53:02.388Z,5.47
2023-05-19T11:55:29.976Z,5.55
2023-05-19T11:58:05.013Z,5.10
2023-05-19T12:00:38.960Z,5.15
2023-05-19T12:03:06.222Z,5.00
2023-05-19T12:05:37.976Z,4.70
2023-05-19T12:08:07.562Z,4.78
2023-05-19T12:10:35.573Z,4.68
2023-05-19T12:13:02.996Z,5.18
2023-05-19T12:15:31.498Z,5.30
2023-05-19T12:18:00.262Z,5.10
2023-05-19T12:20:28.939Z,4.80
2023-05-19T12:22:55.907Z,5.10
2023-05-19T12:25:23.335Z,4.82
2023-05-19T12:27:52.641Z,4.82
2023-05-19T12:30:21.940Z,4.57
2023-05-19T12:32:49.298Z,4.60
2023-05-19T12:35:16.696Z,4.25
2023-05-19T12:37:43.594Z,4.05
2023-05-19T12:40:12.252Z,3.97
2023-05-19T12:42:43.791Z,4.00
2023-05-19T12:45:10.790Z,4.15
2023-05-19T12:47:37.693Z,3.42
2023-05-19T12:50:05.577Z,3.97
2023-05-19T12:52:35.490Z,4.10
2023-05-19T12:55:07.232Z,4.53
2023-05-19T12:57:38.151Z,4.18
2023-05-19T13:00:07.034Z,4.78
2023-05-19T13:02:54.722Z,5.10
2023-05-19T13:05:21.961Z,5.18
2023-05-19T13:07:58.133Z,5.18
2023-05-19T13:10:27.170Z,5.25
2023-05-19T13:12:55.556Z,5.82
2023-05-19T13:15:23.798Z,5.43
2023-05-19T13:17:51.084Z,6.10
2023-05-19T13:20:17.992Z,6.60
2023-05-19T13:22:44.890Z,6.50
2023-05-19T13:25:11.810Z,6.68
2023-05-19T13:27:38.664Z,5.85
2023-05-19T13:30:06.178Z,6.35
2023-05-19T13:32:33.191Z,7.10
2023-05-19T13:35:00.980Z,6.20
2023-05-19T13:37:28.299Z,6.80
2023-05-19T13:39:55.788Z,6.65
2023-05-19T13:42:22.766Z,6.72
2023-05-19T13:44:49.660Z,6.78
2023-05-19T13:47:16.794Z,7.13
2023-05-19T13:49:43.703Z,6.70
2023-05-19T13:52:11.588Z,5.70
2023-05-19T13:54:38.518Z,5.95
2023-05-19T13:57:06.202Z,6.15
2023-05-19T13:59:33.218Z,5.43
2023-05-19T14:02:00.407Z,6.28
2023-05-19T14:04:27.393Z,6.05
2023-05-19T14:06:54.246Z,6.00
2023-05-19T14:09:21.186Z,5.05
2023-05-19T14:11:48.147Z,5.70
2023-05-19T14:14:15.062Z,5.32
2023-05-19T14:16:42.082Z,5.90
2023-05-19T14:19:09.123Z,5.40
2023-05-19T14:21:36.931Z,5.70
2023-05-19T14:24:04.079Z,6.28
2023-05-19T14:26:31.217Z,5.72
2023-05-19T14:28:58.289Z,5.70
2023-05-19T14:31:25.152Z,5.53
2023-05-19T14:33:52.661Z,5.35
2023-05-19T14:36:19.530Z,5.40
2023-05-19T14:38:46.441Z,5.13
2023-05-19T14:41:13.428Z,5.47
2023-05-19T14:43:42.163Z,4.93
2023-05-19T14:46:09.119Z,4.72
2023-05-19T14:48:36.041Z,5.53
2023-05-19T14:51:02.908Z,4.53
2023-05-19T14:53:29.782Z,4.90
2023-05-19T14:55:56.653Z,4.95
2023-05-19T14:58:28.900Z,5.07
2023-05-19T15:00:58.998Z,4.93
2023-05-19T15:03:25.952Z,5.38
2023-05-19T15:05:52.978Z,4.85
2023-05-19T15:08:19.870Z,5.80
2023-05-19T15:10:49.608Z,5.07
2023-05-19T15:13:18.765Z,5.60
2023-05-19T15:15:46.045Z,4.72
2023-05-19T15:18:16.152Z,5.55
2023-05-19T15:20:43.918Z,5.10
2023-05-19T15:23:10.968Z,5.30
2023-05-19T15:25:37.950Z,5.97
2023-05-19T15:28:04.982Z,5.97
2023-05-19T15:30:31.844Z,5.80
2023-05-19T15:32:58.991Z,5.82
2023-05-19T15:35:26.058Z,5.55
2023-05-19T15:37:53.094Z,5.80
2023-05-19T15:40:20.216Z,5.63
2023-05-19T15:42:47.108Z,6.18
2023-05-19T15:45:16.587Z,6.30
2023-05-19T15:47:43.523Z,5.72
2023-05-19T15:50:10.673Z,6.13
2023-05-19T15:52:37.549Z,6.20
2023-05-19T15:55:04.784Z,5.70
2023-05-19T15:57:31.634Z,6.38
2023-05-19T15:59:58.495Z,6.72
2023-05-19T16:02:25.509Z,5.15
2023-05-19T16:04:52.498Z,6.13
2023-05-19T16:07:19.420Z,5.82
2023-05-19T16:09:48.549Z,5.57
2023-05-19T16:12:15.456Z,5.43
2023-05-19T16:14:42.421Z,5.50
2023-05-19T16:17:11.611Z,6.10
2023-05-19T16:19:38.693Z,5.82
2023-05-19T16:22:05.813Z,6.03
2023-05-19T16:24:32.680Z,6.40
2023-05-19T16:26:59.502Z,6.07
2023-05-19T16:29:26.376Z,5.75
2023-05-19T16:31:53.227Z,6.05
2023-05-19T16:34:20.112Z,6.38
2023-05-19T16:36:47.013Z,6.30
2023-05-19T16:39:13.885Z,6.43
2023-05-19T16:41:40.808Z,5.68
2023-05-19T16:44:07.733Z,5.63
2023-05-19T16:46:34.674Z,5.78
2023-05-19T16:49:01.550Z,5.90
2023-05-19T16:51:28.423Z,7.07
2023-05-19T16:53:55.341Z,6.22
2023-05-19T16:56:22.348Z,5.90
2023-05-19T16:58:49.384Z,6.22
2023-05-19T17:01:17.363Z,6.10
2023-05-19T17:03:44.428Z,6.25
2023-05-19T17:06:11.347Z,6.10
2023-05-19T17:08:38.233Z,6.80
2023-05-19T17:11:06.531Z,5.80
2023-05-19T17:13:36.681Z,5.18
2023-05-19T17:16:03.678Z,6.00
2023-05-19T17:18:31.433Z,5.55
2023-05-19T17:21:03.328Z,5.40
2023-05-19T17:23:30.239Z,5.22
2023-05-19T17:25:57.219Z,5.43
2023-05-19T17:28:24.070Z,5.50
2023-05-19T17:30:50.918Z,5.18
2023-05-19T17:33:17.861Z,5.32
2023-05-19T17:35:44.758Z,5.75
2023-05-19T17:38:11.839Z,4.97
2023-05-19T17:40:40.081Z,5.05
2023-05-19T17:43:08.803Z,5.75
2023-05-19T17:45:35.711Z,5.32
2023-05-19T17:48:02.739Z,5.63
2023-05-19T17:50:29.656Z,4.85
2023-05-19T17:52:56.869Z,5.00
2023-05-19T17:55:27.979Z,5.00
2023-05-19T17:57:55.157Z,5.38
2023-05-19T18:00:22.438Z,5.10
2023-05-19T18:02:49.791Z,5.03
2023-05-19T18:05:17.292Z,4.78
2023-05-19T18:07:44.378Z,4.85
2023-05-19T18:10:11.923Z,5.13
2023-05-19T18:12:38.842Z,4.63
2023-05-19T18:15:06.205Z,4.93
2023-05-19T18:17:33.153Z,5.00
2023-05-19T18:20:00.045Z,5.00
2023-05-19T18:22:26.885Z,18.75
2023-05-19T18:24:53.813Z,8.70
2023-05-19T18:27:20.828Z,5.10
2023-05-19T18:29:47.668Z,4.65
2023-05-19T18:32:16.820Z,5.18
2023-05-19T18:34:43.805Z,4.30
2023-05-19T18:37:10.875Z,4.60
2023-05-19T18:39:37.783Z,4.88
2023-05-19T18:42:05.025Z,4.50
2023-05-19T18:44:33.814Z,7.78
2023-05-19T18:47:01.053Z,20.92
2023-05-19T18:49:27.908Z,9.52
2023-05-19T18:51:54.995Z,7.47
2023-05-19T18:54:22.397Z,4.60
2023-05-19T18:56:49.374Z,4.50
2023-05-19T18:59:16.238Z,4.72
2023-05-19T19:01:43.146Z,4.65
2023-05-19T19:04:10.212Z,4.25
2023-05-19T19:06:37.187Z,5.47
2023-05-19T19:09:04.094Z,4.32
2023-05-19T19:11:31.287Z,5.68
2023-05-19T19:13:58.151Z,4.60
2023-05-19T19:16:25.215Z,4.82
2023-05-19T19:18:52.192Z,4.85
2023-05-19T19:21:19.937Z,4.22
2023-05-19T19:23:46.802Z,5.22
2023-05-19T19:26:13.695Z,4.07
2023-05-19T19:28:40.723Z,3.85
2023-05-19T19:31:07.722Z,4.00
2023-05-19T19:33:34.738Z,4.05
2023-05-19T19:36:01.840Z,3.83
2023-05-19T19:38:28.730Z,3.95
2023-05-19T19:40:55.753Z,4.35
2023-05-19T19:43:22.717Z,4.47
2023-05-19T19:45:49.608Z,4.22
2023-05-19T19:48:16.820Z,4.55
2023-05-19T19:50:43.770Z,4.70
2023-05-19T19:53:10.929Z,3.58
2023-05-19T19:55:37.817Z,3.78
2023-05-19T19:58:04.689Z,3.95
2023-05-19T20:00:31.868Z,4.13
2023-05-19T20:05:28.707Z,4.20
2023-05-19T20:07:55.625Z,4.60
2023-05-19T20:10:22.687Z,4.70
2023-05-19T20:12:50.619Z,6.63
2023-05-19T20:15:17.788Z,6.60
2023-05-19T20:17:44.645Z,4.45
2023-05-19T20:20:12.295Z,6.15
2023-05-19T20:22:39.393Z,7.05
2023-05-19T20:25:06.619Z,5.28
2023-05-19T20:27:33.606Z,4.97
2023-05-19T20:30:00.740Z,5.20
2023-05-19T20:32:27.766Z,5.10
2023-05-19T20:34:54.675Z,4.80
2023-05-19T20:37:22.343Z,5.28
2023-05-19T20:39:49.396Z,6.38
2023-05-19T20:42:16.252Z,7.32
2023-05-19T20:44:43.336Z,8.93
2023-05-19T20:47:10.504Z,16.15
2023-05-19T20:49:37.524Z,21.63
2023-05-19T20:52:04.765Z,29.50
2023-05-19T20:54:31.735Z,23.25
2023-05-19T20:56:58.568Z,14.55
2023-05-19T20:59:25.976Z,18.58
2023-05-19T21:01:52.903Z,10.50
2023-05-19T21:04:19.797Z,8.57
2023-05-19T21:06:46.758Z,8.07
2023-05-19T21:09:14.718Z,7.03
2023-05-19T21:11:41.632Z,6.25
2023-05-19T21:14:08.637Z,6.40
2023-05-19T21:16:38.732Z,6.05
2023-05-19T21:19:06.631Z,5.80
2023-05-19T21:21:33.836Z,6.00
2023-05-19T21:24:00.882Z,6.75
2023-05-19T21:26:27.846Z,5.80
2023-05-19T21:28:54.744Z,5.60
2023-05-19T21:31:21.665Z,6.00
2023-05-19T21:33:48.614Z,5.60
2023-05-19T21:36:16.425Z,6.07
2023-05-19T21:38:43.283Z,6.45
2023-05-19T21:41:10.228Z,6.45
2023-05-19T21:43:37.214Z,6.30
2023-05-19T21:46:04.087Z,6.97
2023-05-19T21:48:31.058Z,6.70
2023-05-19T21:50:57.974Z,6.90
2023-05-19T21:53:24.874Z,6.55
2023-05-19T21:55:51.982Z,7.65
2023-05-19T21:58:18.835Z,7.57
2023-05-19T22:00:50.023Z,6.88
2023-05-19T22:03:17.509Z,7.35
2023-05-19T22:05:51.708Z,7.97
2023-05-19T22:08:19.115Z,8.18
2023-05-19T22:10:48.482Z,6.40
2023-05-19T22:13:15.752Z,6.32
2023-05-19T22:15:42.689Z,6.93
2023-05-19T22:18:09.608Z,6.93
2023-05-19T22:20:37.699Z,7.75
2023-05-19T22:23:04.891Z,6.70
2023-05-19T22:25:31.826Z,7.18
2023-05-19T22:28:01.109Z,6.68
2023-05-19T22:30:28.130Z,7.00
2023-05-19T22:32:55.201Z,7.05
2023-05-19T22:35:22.384Z,7.38
2023-05-19T22:37:49.351Z,6.20
2023-05-19T22:40:16.411Z,6.25
2023-05-19T22:42:43.287Z,7.03
2023-05-19T22:45:10.543Z,7.10
2023-05-19T22:47:37.430Z,6.85
2023-05-19T22:50:04.655Z,6.40
2023-05-19T22:52:31.480Z,6.65
2023-05-19T22:54:58.474Z,6.03
2023-05-19T22:57:25.543Z,6.40
2023-05-19T22:59:52.403Z,6.28
2023-05-19T23:02:19.788Z,6.47
2023-05-19T23:04:46.702Z,6.28
2023-05-19T23:07:13.561Z,6.20
2023-05-19T23:09:40.501Z,6.53
2023-05-19T23:12:07.412Z,6.28
2023-05-19T23:14:34.287Z,5.82
2023-05-19T23:17:01.167Z,6.13
2023-05-19T23:19:29.184Z,5.97
2023-05-19T23:21:56.146Z,5.78
2023-05-19T23:24:23.076Z,6.18
2023-05-19T23:26:50.085Z,5.88
2023-05-19T23:29:17.175Z,5.93
2023-05-19T23:31:44.370Z,5.78
2023-05-19T23:34:11.567Z,5.90
2023-05-19T23:36:38.495Z,5.85
2023-05-19T23:39:05.384Z,5.78
2023-05-19T23:41:32.228Z,6.93
2023-05-19T23:43:59.193Z,6.40
2023-05-19T23:46:26.429Z,6.05
2023-05-19T23:48:53.462Z,6.93
2023-05-19T23:51:20.416Z,6.30
2023-05-19T23:53:47.294Z,6.80
2023-05-19T23:56:14.223Z,6.80
2023-05-19T23:58:41.141Z,6.82
